createdAt,value
2022-08-29T04:30:53.378Z,1005.80
2022-08-29T04:31:53.244Z,1005.75
2022-08-29T04:32:53.217Z,1005.77
2022-08-29T04:33:53.205Z,1005.75
2022-08-29T04:34:53.197Z,1005.76
2022-08-29T04:35:53.186Z,1005.73
2022-08-29T04:36:53.199Z,1005.78
2022-08-29T04:37:53.208Z,1005.77
2022-08-29T04:38:53.143Z,1005.78
2022-08-29T04:39:53.138Z,1005.77
2022-08-29T04:40:53.166Z,1005.84
2022-08-29T04:41:53.117Z,1005.75
2022-08-29T04:42:53.152Z,1005.73
2022-08-29T04:43:53.125Z,1005.79
2022-08-29T04:44:53.126Z,1005.83
2022-08-29T04:45:53.097Z,1005.78
2022-08-29T04:46:53.131Z,1005.78
2022-08-29T04:47:53.059Z,1005.75
2022-08-29T04:48:53.053Z,1005.80
2022-08-29T04:49:53.059Z,1005.78
2022-08-29T04:50:53.021Z,1005.74
2022-08-29T04:51:53.024Z,1005.77
2022-08-29T04:52:53.027Z,1005.75
2022-08-29T04:53:52.983Z,1005.83
2022-08-29T04:54:52.999Z,1005.75
2022-08-29T04:55:52.968Z,1005.79
2022-08-29T04:56:52.961Z,1005.72
2022-08-29T04:57:52.970Z,1005.68
2022-08-29T04:58:52.939Z,1005.69
2022-08-29T04:59:52.966Z,1005.65
2022-08-29T05:00:52.963Z,1005.69
2022-08-29T05:01:52.951Z,1005.64
2022-08-29T05:02:52.956Z,1005.66
2022-08-29T05:03:52.892Z,1005.71
2022-08-29T05:04:52.916Z,1005.71
2022-08-29T05:05:52.871Z,1005.73
2022-08-29T05:06:52.886Z,1005.70
2022-08-29T05:07:52.863Z,1005.70
2022-08-29T05:08:55.028Z,1005.72
2022-08-29T05:09:53.846Z,1005.70
2022-08-29T05:10:52.816Z,1005.71
2022-08-29T05:11:52.799Z,1005.64
2022-08-29T05:12:52.795Z,1005.65
2022-08-29T05:13:52.807Z,1005.67
2022-08-29T05:14:52.766Z,1005.70
2022-08-29T05:15:52.838Z,1005.69
2022-08-29T05:16:52.749Z,1005.71
2022-08-29T05:17:52.774Z,1005.72
2022-08-29T05:18:52.708Z,1005.71
2022-08-29T05:19:52.706Z,1005.78
2022-08-29T05:20:52.694Z,1005.77
2022-08-29T05:21:52.676Z,1005.80
2022-08-29T05:22:52.714Z,1005.81
2022-08-29T05:23:52.697Z,1005.80
2022-08-29T05:24:52.648Z,1005.82
2022-08-29T05:25:52.641Z,1005.83
2022-08-29T05:26:52.650Z,1005.81
2022-08-29T05:27:52.623Z,1005.85
2022-08-29T05:28:52.607Z,1005.82
2022-08-29T05:29:52.612Z,1005.84
2022-08-29T05:30:52.711Z,1005.89
2022-08-29T05:31:52.616Z,1005.92
2022-08-29T05:32:52.562Z,1005.91
2022-08-29T05:33:52.558Z,1005.98
2022-08-29T05:34:52.543Z,1006.02
2022-08-29T05:35:52.529Z,1006.00
2022-08-29T05:36:52.536Z,1005.96
2022-08-29T05:37:52.510Z,1006.06
2022-08-29T05:38:52.509Z,1005.98
2022-08-29T05:39:52.507Z,1005.93
2022-08-29T05:40:52.478Z,1005.90
2022-08-29T05:41:52.477Z,1005.92
2022-08-29T05:42:52.479Z,1005.90
2022-08-29T05:43:52.459Z,1005.95
2022-08-29T05:44:52.446Z,1005.95
2022-08-29T05:45:52.495Z,1005.96
2022-08-29T05:46:52.419Z,1005.98
2022-08-29T05:47:52.403Z,1005.96
2022-08-29T05:48:52.402Z,1006.00
2022-08-29T05:49:52.375Z,1006.01
2022-08-29T05:50:52.396Z,1005.98
2022-08-29T05:51:52.365Z,1005.97
2022-08-29T05:52:52.343Z,1006.03
2022-08-29T05:53:52.355Z,1006.03
2022-08-29T05:54:52.321Z,1006.06
2022-08-29T05:55:52.314Z,1006.06
2022-08-29T05:56:52.321Z,1006.07
2022-08-29T05:57:52.304Z,1006.08
2022-08-29T05:58:52.302Z,1006.04
2022-08-29T05:59:52.290Z,1006.07
2022-08-29T06:00:52.280Z,1006.08
2022-08-29T06:01:52.252Z,1006.05
2022-08-29T06:02:52.530Z,1006.00
2022-08-29T06:03:52.374Z,1006.01
2022-08-29T06:04:52.266Z,1005.98
2022-08-29T06:05:52.239Z,1006.01
2022-08-29T06:06:52.202Z,1006.01
2022-08-29T06:07:52.197Z,1006.01
2022-08-29T06:08:52.173Z,1006.04
2022-08-29T06:09:52.172Z,1006.08
2022-08-29T06:10:52.176Z,1006.09
2022-08-29T06:11:52.174Z,1006.09
2022-08-29T06:12:52.139Z,1006.14
2022-08-29T06:13:52.129Z,1006.13
2022-08-29T06:14:52.119Z,1006.11
2022-08-29T06:15:52.182Z,1006.12
2022-08-29T06:16:52.094Z,1006.14
2022-08-29T06:17:52.103Z,1006.17
2022-08-29T06:18:52.072Z,1006.18
2022-08-29T06:19:52.069Z,1006.15
2022-08-29T06:20:52.048Z,1006.23
2022-08-29T06:21:52.041Z,1006.20
2022-08-29T06:22:52.040Z,1006.21
2022-08-29T06:23:52.015Z,1006.25
2022-08-29T06:24:52.027Z,1006.25
2022-08-29T06:25:51.996Z,1006.28
2022-08-29T06:26:51.995Z,1006.24
2022-08-29T06:27:51.991Z,1006.21
2022-08-29T06:28:51.959Z,1006.24
2022-08-29T06:29:51.946Z,1006.25
2022-08-29T06:30:52.027Z,1006.28
2022-08-29T06:31:51.928Z,1006.25
2022-08-29T06:32:51.914Z,1006.26
2022-08-29T06:33:51.922Z,1006.20
2022-08-29T06:34:51.892Z,1006.17
2022-08-29T06:35:51.884Z,1006.19
2022-08-29T06:36:51.874Z,1006.18
2022-08-29T06:37:51.866Z,1006.15
2022-08-29T06:38:51.897Z,1006.19
2022-08-29T06:39:51.849Z,1006.20
2022-08-29T06:40:51.838Z,1006.23
2022-08-29T06:41:51.822Z,1006.22
2022-08-29T06:42:51.815Z,1006.20
2022-08-29T06:43:51.813Z,1006.18
2022-08-29T06:44:51.818Z,1006.21
2022-08-29T06:45:51.810Z,1006.13
2022-08-29T06:46:51.788Z,1006.19
2022-08-29T06:47:51.761Z,1006.19
2022-08-29T06:48:51.742Z,1006.23
2022-08-29T06:49:51.727Z,1006.22
2022-08-29T06:50:51.726Z,1006.24
2022-08-29T06:51:56.799Z,1006.27
2022-08-29T06:52:52.719Z,1006.26
2022-08-29T06:53:51.690Z,1006.28
2022-08-29T06:54:51.678Z,1006.30
2022-08-29T06:55:51.675Z,1006.27
2022-08-29T06:56:51.667Z,1006.21
2022-08-29T06:57:51.658Z,1006.29
2022-08-29T06:58:51.632Z,1006.26
2022-08-29T06:59:51.620Z,1006.23
2022-08-29T07:00:51.613Z,1006.24
2022-08-29T07:01:51.666Z,1006.27
2022-08-29T07:02:52.495Z,1006.27
2022-08-29T07:03:51.587Z,1006.26
2022-08-29T07:04:51.571Z,1006.29
2022-08-29T07:05:51.561Z,1006.26
2022-08-29T07:06:51.591Z,1006.34
2022-08-29T07:07:51.537Z,1006.32
2022-08-29T07:08:55.055Z,1006.31
2022-08-29T07:09:51.528Z,1006.30
2022-08-29T07:10:51.505Z,1006.32
2022-08-29T07:11:51.506Z,1006.37
2022-08-29T07:12:51.485Z,1006.34
2022-08-29T07:13:51.469Z,1006.42
2022-08-29T07:14:52.372Z,1006.40
2022-08-29T07:15:51.520Z,1006.35
2022-08-29T07:16:51.446Z,1006.38
2022-08-29T07:17:51.454Z,1006.39
2022-08-29T07:18:51.479Z,1006.41
2022-08-29T07:19:51.413Z,1006.41
2022-08-29T07:20:51.397Z,1006.41
2022-08-29T07:21:51.386Z,1006.43
2022-08-29T07:22:51.511Z,1006.42
2022-08-29T07:23:51.361Z,1006.43
2022-08-29T07:24:51.405Z,1006.45
2022-08-29T07:25:51.347Z,1006.40
2022-08-29T07:26:51.346Z,1006.42
2022-08-29T07:27:52.050Z,1006.39
2022-08-29T07:28:51.325Z,1006.39
2022-08-29T07:29:51.296Z,1006.40
2022-08-29T07:30:51.370Z,1006.43
2022-08-29T07:31:51.283Z,1006.42
2022-08-29T07:32:51.271Z,1006.40
2022-08-29T07:33:57.088Z,1006.42
2022-08-29T07:34:55.445Z,1006.38
2022-08-29T07:35:51.251Z,1006.39
2022-08-29T07:36:51.237Z,1006.44
2022-08-29T07:37:51.237Z,1006.50
2022-08-29T07:38:51.210Z,1006.49
2022-08-29T07:39:51.205Z,1006.47
2022-08-29T07:40:51.193Z,1006.48
2022-08-29T07:41:51.191Z,1006.53
2022-08-29T07:42:51.174Z,1006.48
2022-08-29T07:43:51.149Z,1006.49
2022-08-29T07:44:51.154Z,1006.48
2022-08-29T07:45:51.168Z,1006.49
2022-08-29T07:46:51.133Z,1006.44
2022-08-29T07:47:51.118Z,1006.42
2022-08-29T07:48:51.100Z,1006.45
2022-08-29T07:49:51.084Z,1006.38
2022-08-29T07:50:51.080Z,1006.42
2022-08-29T07:51:51.081Z,1006.30
2022-08-29T07:52:51.060Z,1006.29
2022-08-29T07:53:51.035Z,1006.33
2022-08-29T07:54:51.029Z,1006.34
2022-08-29T07:55:51.053Z,1006.38
2022-08-29T07:56:51.036Z,1006.40
2022-08-29T07:57:51.009Z,1006.39
2022-08-29T07:58:50.987Z,1006.40
2022-08-29T07:59:50.983Z,1006.39
2022-08-29T08:00:50.970Z,1006.35
2022-08-29T08:01:51.035Z,1006.39
2022-08-29T08:02:50.997Z,1006.37
2022-08-29T08:03:51.110Z,1006.30
2022-08-29T08:04:52.636Z,1006.34
2022-08-29T08:05:50.916Z,1006.30
2022-08-29T08:06:50.900Z,1006.30
2022-08-29T08:07:56.239Z,1006.32
2022-08-29T08:08:51.894Z,1006.34
2022-08-29T08:09:50.866Z,1006.38
2022-08-29T08:10:52.277Z,1006.35
2022-08-29T08:11:50.845Z,1006.31
2022-08-29T08:12:50.847Z,1006.37
2022-08-29T08:13:50.827Z,1006.37
2022-08-29T08:14:50.840Z,1006.34
2022-08-29T08:15:50.827Z,1006.36
2022-08-29T08:16:50.822Z,1006.41
2022-08-29T08:17:50.808Z,1006.40
2022-08-29T08:18:50.780Z,1006.33
2022-08-29T08:19:50.774Z,1006.37
2022-08-29T08:20:50.753Z,1006.36
2022-08-29T08:21:50.736Z,1006.41
2022-08-29T08:22:50.728Z,1006.37
2022-08-29T08:23:50.737Z,1006.35
2022-08-29T08:24:50.720Z,1006.37
2022-08-29T08:25:50.701Z,1006.39
2022-08-29T08:26:50.684Z,1006.43
2022-08-29T08:27:50.688Z,1006.44
2022-08-29T08:28:50.687Z,1006.38
2022-08-29T08:29:50.656Z,1006.44
2022-08-29T08:30:50.701Z,1006.43
2022-08-29T08:31:50.632Z,1006.43
2022-08-29T08:32:54.630Z,1006.46
2022-08-29T08:33:50.627Z,1006.42
2022-08-29T08:34:53.673Z,1006.42
2022-08-29T08:35:50.621Z,1006.48
2022-08-29T08:36:50.612Z,1006.42
2022-08-29T08:37:50.562Z,1006.42
2022-08-29T08:38:50.552Z,1006.44
2022-08-29T08:39:50.593Z,1006.41
2022-08-29T08:40:50.538Z,1006.49
2022-08-29T08:41:50.532Z,1006.44
2022-08-29T08:42:50.507Z,1006.41
2022-08-29T08:43:50.495Z,1006.45
2022-08-29T08:44:50.489Z,1006.47
2022-08-29T08:45:50.519Z,1006.46
2022-08-29T08:46:50.473Z,1006.49
2022-08-29T08:47:50.471Z,1006.48
2022-08-29T08:48:50.444Z,1006.52
2022-08-29T08:49:50.478Z,1006.55
2022-08-29T08:50:54.465Z,1006.45
2022-08-29T08:51:50.415Z,1006.51
2022-08-29T08:52:50.423Z,1006.47
2022-08-29T08:53:50.416Z,1006.45
2022-08-29T08:54:50.393Z,1006.43
2022-08-29T08:55:50.370Z,1006.45
2022-08-29T08:56:50.380Z,1006.41
2022-08-29T08:57:50.362Z,1006.43
2022-08-29T08:58:50.346Z,1006.45
2022-08-29T08:59:50.327Z,1006.50
2022-08-29T09:00:50.390Z,1006.50
2022-08-29T09:01:50.306Z,1006.51
2022-08-29T09:02:50.372Z,1006.51
2022-08-29T09:03:50.294Z,1006.54
2022-08-29T09:04:50.278Z,1006.57
2022-08-29T09:05:50.275Z,1006.50
2022-08-29T09:06:50.261Z,1006.47
2022-08-29T09:07:50.258Z,1006.45
2022-08-29T09:08:50.235Z,1006.47
2022-08-29T09:09:50.255Z,1006.49
2022-08-29T09:10:50.229Z,1006.53
2022-08-29T09:11:50.201Z,1006.49
2022-08-29T09:12:51.620Z,1006.50
2022-08-29T09:13:50.184Z,1006.46
2022-08-29T09:14:50.182Z,1006.41
2022-08-29T09:15:50.197Z,1006.40
2022-08-29T09:16:50.304Z,1006.38
2022-08-29T09:17:50.136Z,1006.37
2022-08-29T09:18:52.760Z,1006.36
2022-08-29T09:19:50.117Z,1006.38
2022-08-29T09:20:50.111Z,1006.40
2022-08-29T09:21:50.118Z,1006.40
2022-08-29T09:22:50.094Z,1006.40
2022-08-29T09:23:50.071Z,1006.52
2022-08-29T09:24:50.071Z,1006.49
2022-08-29T09:25:50.094Z,1006.46
2022-08-29T09:26:50.055Z,1006.45
2022-08-29T09:27:50.076Z,1006.46
2022-08-29T09:28:50.048Z,1006.42
2022-08-29T09:29:50.031Z,1006.40
2022-08-29T09:30:50.007Z,1006.37
2022-08-29T09:31:50.004Z,1006.39
2022-08-29T09:32:49.982Z,1006.41
2022-08-29T09:33:50.001Z,1006.40
2022-08-29T09:35:07.925Z,1006.39
2022-08-29T09:35:50.947Z,1006.33
2022-08-29T09:36:49.986Z,1006.38
2022-08-29T09:37:49.940Z,1006.38
2022-08-29T09:38:49.946Z,1006.36
2022-08-29T09:39:51.883Z,1006.34
2022-08-29T09:40:49.951Z,1006.39
2022-08-29T09:41:49.891Z,1006.45
2022-08-29T09:42:49.888Z,1006.42
2022-08-29T09:43:50.339Z,1006.41
2022-08-29T09:44:49.843Z,1006.33
2022-08-29T09:45:49.893Z,1006.32
2022-08-29T09:46:49.867Z,1006.38
2022-08-29T09:47:49.831Z,1006.36
2022-08-29T09:48:49.806Z,1006.36
2022-08-29T09:49:49.794Z,1006.38
2022-08-29T09:50:49.780Z,1006.39
2022-08-29T09:51:49.806Z,1006.41
2022-08-29T09:52:49.780Z,1006.37
2022-08-29T09:53:49.758Z,1006.39
2022-08-29T09:54:49.745Z,1006.38
2022-08-29T09:55:49.751Z,1006.37
2022-08-29T09:56:49.720Z,1006.41
2022-08-29T09:57:49.716Z,1006.36
2022-08-29T09:58:49.703Z,1006.35
2022-08-29T09:59:49.773Z,1006.34
2022-08-29T10:00:49.694Z,1006.34
2022-08-29T10:01:49.827Z,1006.38
2022-08-29T10:02:49.854Z,1006.38
2022-08-29T10:03:49.644Z,1006.31
2022-08-29T10:04:49.629Z,1006.38
2022-08-29T10:05:49.653Z,1006.38
2022-08-29T10:06:52.783Z,1006.32
2022-08-29T10:07:49.629Z,1006.30
2022-08-29T10:08:49.615Z,1006.26
2022-08-29T10:09:49.587Z,1006.23
2022-08-29T10:10:49.583Z,1006.23
2022-08-29T10:11:54.295Z,1006.27
2022-08-29T10:12:50.570Z,1006.23
2022-08-29T10:13:49.541Z,1006.29
2022-08-29T10:14:50.317Z,1006.30
2022-08-29T10:15:51.175Z,1006.35
2022-08-29T10:16:49.630Z,1006.34
2022-08-29T10:17:53.338Z,1006.35
2022-08-29T10:18:50.487Z,1006.34
2022-08-29T10:19:49.478Z,1006.29
2022-08-29T10:20:49.467Z,1006.29
2022-08-29T10:21:49.452Z,1006.24
2022-08-29T10:22:49.458Z,1006.30
2022-08-29T10:23:49.442Z,1006.31
2022-08-29T10:24:49.419Z,1006.18
2022-08-29T10:25:49.405Z,1006.19
2022-08-29T10:26:49.413Z,1006.16
2022-08-29T10:27:49.390Z,1006.17
2022-08-29T10:28:51.580Z,1006.14
2022-08-29T10:29:49.397Z,1006.13
2022-08-29T10:30:49.356Z,1006.16
2022-08-29T10:31:49.456Z,1006.15
2022-08-29T10:32:49.335Z,1006.12
2022-08-29T10:33:49.334Z,1006.09
2022-08-29T10:34:49.334Z,1006.15
2022-08-29T10:35:54.186Z,1006.10
2022-08-29T10:36:50.340Z,1006.09
2022-08-29T10:37:49.291Z,1006.06
2022-08-29T10:38:49.269Z,1006.06
2022-08-29T10:39:49.274Z,1006.06
2022-08-29T10:40:49.354Z,1006.03
2022-08-29T10:41:50.492Z,1006.03
2022-08-29T10:42:49.278Z,1006.04
2022-08-29T10:43:49.232Z,1006.00
2022-08-29T10:44:49.200Z,1005.97
2022-08-29T10:45:49.290Z,1006.02
2022-08-29T10:46:49.213Z,1006.00
2022-08-29T10:47:49.179Z,1005.92
2022-08-29T10:48:49.189Z,1005.99
2022-08-29T10:49:49.144Z,1005.97
2022-08-29T10:50:49.147Z,1005.95
2022-08-29T10:51:49.125Z,1005.91
2022-08-29T10:52:49.111Z,1005.88
2022-08-29T10:53:49.120Z,1005.95
2022-08-29T10:54:49.093Z,1005.91
2022-08-29T10:55:49.096Z,1005.90
2022-08-29T10:56:49.071Z,1005.88
2022-08-29T10:57:49.054Z,1005.86
2022-08-29T10:58:49.054Z,1005.82
2022-08-29T10:59:49.074Z,1005.83
2022-08-29T11:00:49.138Z,1005.82
2022-08-29T11:01:49.024Z,1005.82
2022-08-29T11:02:49.023Z,1005.81
2022-08-29T11:03:49.087Z,1005.72
2022-08-29T11:04:49.022Z,1005.76
2022-08-29T11:06:18.749Z,1005.75
2022-08-29T11:06:48.977Z,1005.73
2022-08-29T11:07:48.960Z,1005.75
2022-08-29T11:08:48.974Z,1005.74
2022-08-29T11:09:48.949Z,1005.70
2022-08-29T11:10:48.944Z,1005.69
2022-08-29T11:11:48.915Z,1005.72
2022-08-29T11:12:48.925Z,1005.70
2022-08-29T11:13:48.907Z,1005.73
2022-08-29T11:14:48.888Z,1005.68
2022-08-29T11:15:48.873Z,1005.65
2022-08-29T11:16:48.942Z,1005.64
2022-08-29T11:17:48.857Z,1005.67
2022-08-29T11:18:48.867Z,1005.67
2022-08-29T11:19:48.858Z,1005.60
2022-08-29T11:20:48.825Z,1005.65
2022-08-29T11:21:48.805Z,1005.63
2022-08-29T11:22:48.804Z,1005.64
2022-08-29T11:23:48.806Z,1005.60
2022-08-29T11:24:48.790Z,1005.61
2022-08-29T11:25:48.775Z,1005.62
2022-08-29T11:26:48.779Z,1005.63
2022-08-29T11:27:48.763Z,1005.55
2022-08-29T11:28:48.746Z,1005.55
2022-08-29T11:29:48.726Z,1005.55
2022-08-29T11:30:48.757Z,1005.52
2022-08-29T11:31:48.854Z,1005.54
2022-08-29T11:32:48.740Z,1005.50
2022-08-29T11:33:49.039Z,1005.54
2022-08-29T11:34:48.716Z,1005.48
2022-08-29T11:35:48.660Z,1005.52
2022-08-29T11:36:48.665Z,1005.45
2022-08-29T11:37:48.647Z,1005.45
2022-08-29T11:38:48.690Z,1005.47
2022-08-29T11:39:48.615Z,1005.45
2022-08-29T11:41:25.814Z,1005.43
2022-08-29T11:41:49.635Z,1005.47
2022-08-29T11:42:50.165Z,1005.45
2022-08-29T11:43:48.585Z,1005.43
2022-08-29T11:44:48.588Z,1005.42
2022-08-29T11:45:48.555Z,1005.40
2022-08-29T11:46:49.412Z,1005.40
2022-08-29T11:47:49.557Z,1005.39
2022-08-29T11:48:48.535Z,1005.41
2022-08-29T11:49:48.542Z,1005.42
2022-08-29T11:50:48.535Z,1005.38
2022-08-29T11:51:48.492Z,1005.41
2022-08-29T11:52:48.483Z,1005.36
2022-08-29T11:53:48.477Z,1005.35
2022-08-29T11:54:48.454Z,1005.34
2022-08-29T11:55:48.468Z,1005.34
2022-08-29T11:56:48.454Z,1005.30
2022-08-29T11:57:48.430Z,1005.33
2022-08-29T11:58:48.417Z,1005.28
2022-08-29T11:59:48.404Z,1005.27
2022-08-29T12:00:48.410Z,1005.23
2022-08-29T12:01:48.534Z,1005.25
2022-08-29T12:02:49.091Z,1005.23
2022-08-29T12:03:48.359Z,1005.22
2022-08-29T12:04:48.393Z,1005.26
2022-08-29T12:05:48.372Z,1005.27
2022-08-29T12:06:48.351Z,1005.21
2022-08-29T12:07:48.327Z,1005.25
2022-08-29T12:08:48.333Z,1005.27
2022-08-29T12:09:48.305Z,1005.23
2022-08-29T12:10:48.306Z,1005.21
2022-08-29T12:11:48.306Z,1005.20
2022-08-29T12:12:48.286Z,1005.16
2022-08-29T12:13:48.286Z,1005.16
2022-08-29T12:14:48.265Z,1005.14
2022-08-29T12:15:48.235Z,1005.13
2022-08-29T12:16:48.406Z,1005.12
2022-08-29T12:18:03.824Z,1005.12
2022-08-29T12:18:49.201Z,1005.11
2022-08-29T12:19:48.207Z,1005.11
2022-08-29T12:20:48.191Z,1005.11
2022-08-29T12:21:48.182Z,1005.09
2022-08-29T12:22:48.203Z,1005.05
2022-08-29T12:23:48.187Z,1005.08
2022-08-29T12:24:50.915Z,1005.08
2022-08-29T12:26:03.710Z,1005.06
2022-08-29T12:26:49.130Z,1005.06
2022-08-29T12:27:48.104Z,1005.04
2022-08-29T12:28:48.134Z,1005.02
2022-08-29T12:29:48.084Z,1004.99
2022-08-29T12:30:48.076Z,1004.96
2022-08-29T12:32:08.581Z,1004.96
2022-08-29T12:32:49.088Z,1004.92
2022-08-29T12:33:48.057Z,1004.96
2022-08-29T12:34:49.775Z,1004.92
2022-08-29T12:35:48.033Z,1004.93
2022-08-29T12:36:52.782Z,1004.93
2022-08-29T12:37:48.007Z,1004.87
2022-08-29T12:38:48.022Z,1004.96
2022-08-29T12:39:48.033Z,1004.87
2022-08-29T12:40:48.015Z,1004.83
2022-08-29T12:41:47.966Z,1004.90
2022-08-29T12:42:47.964Z,1004.84
2022-08-29T12:43:47.946Z,1004.84
2022-08-29T12:44:47.985Z,1004.83
2022-08-29T12:45:47.966Z,1004.83
2022-08-29T12:46:47.966Z,1004.80
2022-08-29T12:47:47.907Z,1004.75
2022-08-29T12:48:57.655Z,1004.80
2022-08-29T12:49:48.878Z,1004.78
2022-08-29T12:50:47.864Z,1004.74
2022-08-29T12:51:47.872Z,1004.74
2022-08-29T12:52:47.883Z,1004.76
2022-08-29T12:53:47.832Z,1004.71
2022-08-29T12:54:47.825Z,1004.67
2022-08-29T12:55:47.828Z,1004.66
2022-08-29T12:56:47.827Z,1004.67
2022-08-29T12:57:47.787Z,1004.68
2022-08-29T12:58:47.797Z,1004.59
2022-08-29T12:59:47.778Z,1004.55
2022-08-29T13:00:47.769Z,1004.60
2022-08-29T13:01:47.856Z,1004.62
2022-08-29T13:02:47.840Z,1004.59
2022-08-29T13:03:47.762Z,1004.58
2022-08-29T13:04:47.737Z,1004.53
2022-08-29T13:05:47.719Z,1004.54
2022-08-29T13:06:47.703Z,1004.54
2022-08-29T13:07:47.688Z,1004.59
2022-08-29T13:08:47.698Z,1004.59
2022-08-29T13:09:47.713Z,1004.60
2022-08-29T13:10:47.659Z,1004.59
2022-08-29T13:11:47.644Z,1004.55
2022-08-29T13:12:47.660Z,1004.59
2022-08-29T13:13:47.621Z,1004.59
2022-08-29T13:14:47.616Z,1004.53
2022-08-29T13:15:47.711Z,1004.59
2022-08-29T13:16:47.594Z,1004.59
2022-08-29T13:17:47.589Z,1004.62
2022-08-29T13:19:07.357Z,1004.63
2022-08-29T13:19:48.561Z,1004.61
2022-08-29T13:20:47.552Z,1004.59
2022-08-29T13:21:47.573Z,1004.59
2022-08-29T13:22:47.554Z,1004.63
2022-08-29T13:23:47.528Z,1004.61
2022-08-29T13:24:47.512Z,1004.60
2022-08-29T13:25:47.515Z,1004.64
2022-08-29T13:26:50.675Z,1004.62
2022-08-29T13:27:48.477Z,1004.59
2022-08-29T13:28:47.475Z,1004.62
2022-08-29T13:29:47.467Z,1004.58
2022-08-29T13:30:48.862Z,1004.65
2022-08-29T13:31:47.494Z,1004.59
2022-08-29T13:32:49.913Z,1004.58
2022-08-29T13:33:47.415Z,1004.59
2022-08-29T13:34:47.406Z,1004.58
2022-08-29T13:35:48.308Z,1004.58
2022-08-29T13:36:47.407Z,1004.54
2022-08-29T13:37:47.420Z,1004.54
2022-08-29T13:38:47.390Z,1004.59
2022-08-29T13:39:48.200Z,1004.60
2022-08-29T13:40:47.717Z,1004.62
2022-08-29T13:41:47.486Z,1004.61
2022-08-29T13:42:50.402Z,1004.52
2022-08-29T13:43:47.607Z,1004.53
2022-08-29T13:44:47.444Z,1004.49
2022-08-29T13:45:48.290Z,1004.52
2022-08-29T13:46:54.148Z,1004.48
2022-08-29T13:47:49.758Z,1004.49
2022-08-29T13:49:12.074Z,1004.48
2022-08-29T13:49:55.437Z,1004.42
2022-08-29T13:51:10.322Z,1004.47
2022-08-29T13:51:47.329Z,1004.50
2022-08-29T13:52:47.261Z,1004.49
2022-08-29T13:53:48.613Z,1004.43
2022-08-29T13:55:03.290Z,1004.37
2022-08-29T13:55:49.222Z,1004.37
2022-08-29T13:56:49.269Z,1004.39
2022-08-29T13:57:48.219Z,1004.44
2022-08-29T13:58:47.182Z,1004.38
2022-08-29T13:59:47.165Z,1004.38
2022-08-29T14:00:47.139Z,1004.33
2022-08-29T14:02:48.237Z,1004.33
2022-08-29T14:03:47.305Z,1004.29
2022-08-29T14:04:47.202Z,1004.29
2022-08-29T14:05:47.099Z,1004.31
2022-08-29T14:06:47.088Z,1004.25
2022-08-29T14:07:47.065Z,1004.28
2022-08-29T14:08:47.056Z,1004.26
2022-08-29T14:09:47.078Z,1004.23
2022-08-29T14:10:47.044Z,1004.28
2022-08-29T14:11:47.019Z,1004.28
2022-08-29T14:12:47.014Z,1004.26
2022-08-29T14:13:46.989Z,1004.30
2022-08-29T14:14:46.998Z,1004.30
2022-08-29T14:15:47.027Z,1004.33
2022-08-29T14:16:46.957Z,1004.38
2022-08-29T14:17:46.946Z,1004.32
2022-08-29T14:18:46.971Z,1004.30
2022-08-29T14:19:46.926Z,1004.30
2022-08-29T14:20:46.921Z,1004.28
2022-08-29T14:21:46.905Z,1004.29
2022-08-29T14:22:46.913Z,1004.22
2022-08-29T14:23:46.880Z,1004.18
2022-08-29T14:24:46.869Z,1004.18
2022-08-29T14:25:46.861Z,1004.17
2022-08-29T14:26:46.868Z,1004.18
2022-08-29T14:27:47.843Z,1004.18
2022-08-29T14:28:48.190Z,1004.22
2022-08-29T14:29:46.816Z,1004.21
2022-08-29T14:30:47.854Z,1004.23
2022-08-29T14:31:47.802Z,1004.24
2022-08-29T14:32:46.792Z,1004.24
2022-08-29T14:33:46.780Z,1004.27
2022-08-29T14:34:51.210Z,1004.26
2022-08-29T14:35:46.760Z,1004.23
2022-08-29T14:36:48.259Z,1004.25
2022-08-29T14:37:46.733Z,1004.24
2022-08-29T14:38:46.715Z,1004.27
2022-08-29T14:39:48.450Z,1004.27
2022-08-29T14:40:46.776Z,1004.26
2022-08-29T14:41:46.690Z,1004.21
2022-08-29T14:42:46.678Z,1004.20
2022-08-29T14:43:46.686Z,1004.23
2022-08-29T14:44:46.665Z,1004.18
2022-08-29T14:45:46.645Z,1004.13
2022-08-29T14:46:46.690Z,1004.16
2022-08-29T14:47:46.679Z,1004.15
2022-08-29T14:48:46.628Z,1004.17
2022-08-29T14:49:46.604Z,1004.13
2022-08-29T14:50:46.601Z,1004.16
2022-08-29T14:51:46.589Z,1004.17
2022-08-29T14:52:46.567Z,1004.14
2022-08-29T14:53:51.524Z,1004.15
2022-08-29T14:54:47.603Z,1004.16
2022-08-29T14:55:46.533Z,1004.12
2022-08-29T14:56:49.596Z,1004.15
2022-08-29T14:57:46.515Z,1004.12
2022-08-29T14:58:46.509Z,1004.12
2022-08-29T14:59:46.489Z,1004.11
2022-08-29T15:00:46.502Z,1004.10
2022-08-29T15:01:52.635Z,1004.15
2022-08-29T15:02:47.493Z,1004.12
2022-08-29T15:03:46.470Z,1004.08
2022-08-29T15:04:46.450Z,1004.12
2022-08-29T15:05:46.857Z,1004.14
2022-08-29T15:06:46.421Z,1004.09
2022-08-29T15:07:46.402Z,1004.08
2022-08-29T15:08:46.412Z,1004.05
2022-08-29T15:09:46.410Z,1004.07
2022-08-29T15:10:46.370Z,1004.02
2022-08-29T15:11:46.360Z,1004.01
2022-08-29T15:12:46.371Z,1003.98
2022-08-29T15:13:46.338Z,1004.02
2022-08-29T15:14:46.325Z,1003.99
2022-08-29T15:15:46.370Z,1003.97
2022-08-29T15:16:46.298Z,1003.98
2022-08-29T15:17:46.292Z,1003.96
2022-08-29T15:19:31.546Z,1003.96
2022-08-29T15:20:34.294Z,1003.94
2022-08-29T15:20:47.573Z,1003.97
2022-08-29T15:21:46.247Z,1003.94
2022-08-29T15:22:46.248Z,1003.94
2022-08-29T15:23:46.242Z,1003.91
2022-08-29T15:24:46.223Z,1003.91
2022-08-29T15:25:52.135Z,1003.89
2022-08-29T15:26:47.188Z,1003.87
2022-08-29T15:27:46.185Z,1003.80
2022-08-29T15:28:46.254Z,1003.80
2022-08-29T15:29:46.162Z,1003.76
2022-08-29T15:30:46.185Z,1003.80
2022-08-29T15:31:46.150Z,1003.78
2022-08-29T15:32:46.127Z,1003.82
2022-08-29T15:33:46.124Z,1003.76
2022-08-29T15:34:46.131Z,1003.80
2022-08-29T15:35:46.092Z,1003.80
2022-08-29T15:36:46.101Z,1003.77
2022-08-29T15:37:46.079Z,1003.78
2022-08-29T15:38:46.080Z,1003.77
2022-08-29T15:39:46.065Z,1003.75
2022-08-29T15:40:46.114Z,1003.72
2022-08-29T15:41:46.046Z,1003.67
2022-08-29T15:42:46.042Z,1003.67
2022-08-29T15:43:46.010Z,1003.66
2022-08-29T15:44:46.000Z,1003.65
2022-08-29T15:45:47.037Z,1003.68
2022-08-29T15:46:50.379Z,1003.66
2022-08-29T15:47:46.565Z,1003.65
2022-08-29T15:48:45.971Z,1003.71
2022-08-29T15:49:45.949Z,1003.65
2022-08-29T15:50:45.940Z,1003.66
2022-08-29T15:51:45.934Z,1003.67
2022-08-29T15:52:45.918Z,1003.72
2022-08-29T15:53:45.943Z,1003.74
2022-08-29T15:54:45.921Z,1003.69
2022-08-29T15:55:45.889Z,1003.69
2022-08-29T15:56:45.881Z,1003.69
2022-08-29T15:57:52.159Z,1003.64
2022-08-29T15:58:46.858Z,1003.66
2022-08-29T16:00:00.159Z,1003.70
2022-08-29T16:00:46.837Z,1003.70
2022-08-29T16:01:45.867Z,1003.68
2022-08-29T16:02:45.879Z,1003.67
2022-08-29T16:03:45.824Z,1003.65
2022-08-29T16:04:45.814Z,1003.56
2022-08-29T16:05:45.813Z,1003.61
2022-08-29T16:06:45.802Z,1003.62
2022-08-29T16:07:45.768Z,1003.59
2022-08-29T16:08:46.208Z,1003.60
2022-08-29T16:09:45.747Z,1003.58
2022-08-29T16:10:45.760Z,1003.55
2022-08-29T16:11:45.734Z,1003.55
2022-08-29T16:12:45.718Z,1003.53
2022-08-29T16:13:45.714Z,1003.50
2022-08-29T16:14:59.215Z,1003.49
2022-08-29T16:15:46.755Z,1003.48
2022-08-29T16:16:45.674Z,1003.45
2022-08-29T16:17:45.664Z,1003.48
2022-08-29T16:18:45.691Z,1003.48
2022-08-29T16:19:45.652Z,1003.46
2022-08-29T16:20:45.636Z,1003.49
2022-08-29T16:21:45.635Z,1003.51
2022-08-29T16:22:45.622Z,1003.47
2022-08-29T16:23:45.626Z,1003.49
2022-08-29T16:24:45.630Z,1003.47
2022-08-29T16:25:45.664Z,1003.48
2022-08-29T16:26:45.986Z,1003.47
2022-08-29T16:27:45.571Z,1003.45
2022-08-29T16:28:45.554Z,1003.43
2022-08-29T16:29:45.564Z,1003.52
2022-08-29T16:30:46.302Z,1003.54
2022-08-29T16:31:45.535Z,1003.53
2022-08-29T16:32:45.508Z,1003.53
2022-08-29T16:33:45.509Z,1003.51
2022-08-29T16:34:45.489Z,1003.54
2022-08-29T16:35:45.491Z,1003.52
2022-08-29T16:36:45.480Z,1003.55